createdAt,value
2019-01-03T00:02:45.020Z,103646.20
2019-01-03T00:05:53.100Z,103650.95
2019-01-03T00:08:41.067Z,103663.23
2019-01-03T00:11:48.710Z,103660.87
2019-01-03T00:14:54.926Z,103665.26
2019-01-03T00:18:02.419Z,103651.45
2019-01-03T00:20:59.935Z,103636.61
2019-01-03T00:24:09.200Z,103634.97
2019-01-03T00:27:10.100Z,103640.05
2019-01-03T00:30:19.551Z,103639.06
2019-01-03T00:33:20.263Z,103641.24
2019-01-03T00:36:27.760Z,103629.28
2019-01-03T00:39:30.393Z,103639.24
2019-01-03T00:42:37.824Z,103631.86
2019-01-03T00:45:42.877Z,103638.48
2019-01-03T00:48:52.166Z,103636.02
2019-01-03T00:51:50.032Z,103629.11
2019-01-03T00:54:57.423Z,103627.19
2019-01-03T00:57:57.754Z,103629.17
2019-01-03T01:01:05.699Z,103631.71
2019-01-03T01:04:08.547Z,103625.07
2019-01-03T01:07:15.994Z,103630.61
2019-01-03T01:10:23.357Z,103633.20
2019-01-03T01:13:30.772Z,103628.45
2019-01-03T01:16:26.412Z,103628.05
2019-01-03T01:19:33.830Z,103622.84
2019-01-03T01:22:34.744Z,103635.16
2019-01-03T01:25:27.141Z,103622.75
2019-01-03T01:28:28.920Z,103630.73
2019-01-03T01:31:29.036Z,103626.60
2019-01-03T01:34:31.993Z,103616.13
2019-01-03T01:37:39.345Z,103605.23
2019-01-03T01:40:32.192Z,103609.08
2019-01-03T01:43:39.844Z,103612.55
2019-01-03T01:46:36.239Z,103605.22
2019-01-03T01:49:43.797Z,103595.20
2019-01-03T01:52:40.736Z,103602.10
2019-01-03T01:55:28.620Z,103602.20
2019-01-03T01:58:28.909Z,103616.90
2019-01-03T02:01:36.407Z,103612.94
2019-01-03T02:04:36.475Z,103613.37
2019-01-03T02:07:39.331Z,103617.25
2019-01-03T02:10:39.376Z,103619.36
2019-01-03T02:13:46.886Z,103621.32
2019-01-03T02:16:47.643Z,103632.61
2019-01-03T02:19:55.038Z,103636.34
2019-01-03T02:22:58.504Z,103634.56
2019-01-03T02:26:04.969Z,103624.17
2019-01-03T02:29:07.138Z,103625.69
2019-01-03T02:32:15.051Z,103631.88
2019-01-03T02:35:15.364Z,103631.16
2019-01-03T02:38:24.638Z,103631.52
2019-01-03T02:41:24.832Z,103617.73
2019-01-03T02:44:32.354Z,103614.55
2019-01-03T02:47:32.975Z,103615.16
2019-01-03T02:50:32.701Z,103615.16
2019-01-03T02:53:34.413Z,103609.06
2019-01-03T02:56:41.751Z,103597.01
2019-01-03T02:59:42.637Z,103598.12
2019-01-03T03:02:50.207Z,103594.27
2019-01-03T03:05:54.178Z,103599.44
2019-01-03T03:08:51.732Z,103606.90
2019-01-03T03:11:54.385Z,103606.97
2019-01-03T03:15:01.831Z,103599.47
2019-01-03T03:18:01.885Z,103597.09
2019-01-03T03:21:09.365Z,103601.39
2019-01-03T03:24:13.159Z,103598.72
2019-01-03T03:27:15.391Z,103591.97
2019-01-03T03:30:16.403Z,103590.88
2019-01-03T03:33:16.696Z,103590.41
2019-01-03T03:36:24.168Z,103590.03
2019-01-03T03:39:25.209Z,103587.54
2019-01-03T03:42:13.680Z,103587.20
2019-01-03T03:45:14.144Z,103587.62
2019-01-03T03:48:21.592Z,103581.13
2019-01-03T03:51:22.646Z,103581.99
2019-01-03T03:54:22.774Z,103577.45
2019-01-03T03:57:30.368Z,103569.91
2019-01-03T04:00:30.957Z,103577.78
2019-01-03T04:03:38.690Z,103579.25
2019-01-03T04:06:39.293Z,103584.08
2019-01-03T04:09:36.503Z,103576.11
2019-01-03T04:12:36.603Z,103572.34
2019-01-03T04:15:44.246Z,103568.77
2019-01-03T04:18:44.860Z,103572.59
2019-01-03T04:21:52.650Z,103575.05
2019-01-03T04:24:53.106Z,103580.55
2019-01-03T04:27:53.279Z,103583.59
2019-01-03T04:30:54.172Z,103590.41
2019-01-03T04:33:54.566Z,103581.67
2019-01-03T04:37:02.105Z,103582.48
2019-01-03T04:39:57.062Z,103586.05
2019-01-03T04:43:06.233Z,103583.15
2019-01-03T04:46:06.792Z,103579.41
2019-01-03T04:49:14.979Z,103583.19
2019-01-03T04:52:21.105Z,103586.20
2019-01-03T04:55:28.646Z,103582.47
2019-01-03T04:58:29.040Z,103588.06
2019-01-03T05:01:51.710Z,103584.52
2019-01-03T05:04:59.253Z,103589.82
2019-01-03T05:08:02.231Z,103593.54
2019-01-03T05:11:09.601Z,103591.20
2019-01-03T05:14:09.511Z,103588.13
2019-01-03T05:17:16.974Z,103583.38
2019-01-03T05:20:13.749Z,103589.53
2019-01-03T05:23:21.125Z,103580.08
2019-01-03T05:26:24.669Z,103592.65
2019-01-03T05:29:32.257Z,103592.48
2019-01-03T05:32:32.182Z,103596.32
2019-01-03T05:35:39.646Z,103596.84
2019-01-03T05:38:51.160Z,103598.19
2019-01-03T05:41:51.732Z,103591.88
2019-01-03T05:45:00.961Z,103575.17
2019-01-03T05:48:01.553Z,103575.01
2019-01-03T05:51:09.044Z,103578.96
2019-01-03T05:54:09.855Z,103574.78
2019-01-03T05:57:17.436Z,103579.98
2019-01-03T06:00:18.025Z,103577.69
2019-01-03T06:03:25.372Z,103574.94
2019-01-03T06:06:26.246Z,103584.12
2019-01-03T06:09:32.029Z,103587.00
2019-01-03T06:12:39.519Z,103589.81
2019-01-03T06:15:39.567Z,103602.47
2019-01-03T06:18:48.814Z,103602.42
2019-01-03T06:21:48.952Z,103598.23
2019-01-03T06:24:58.088Z,103593.13
2019-01-03T06:27:57.781Z,103579.27
2019-01-03T06:31:05.328Z,103574.97
2019-01-03T06:34:11.512Z,103589.38
2019-01-03T06:37:18.969Z,103601.27
2019-01-03T06:40:19.741Z,103598.66
2019-01-03T06:43:22.560Z,103599.06
2019-01-03T06:46:20.992Z,103593.77
2019-01-03T06:49:28.420Z,103592.58
2019-01-03T06:52:28.384Z,103587.11
2019-01-03T06:55:24.474Z,103588.67
2019-01-03T06:58:27.593Z,103589.30
2019-01-03T07:01:36.781Z,103600.28
2019-01-03T07:04:36.888Z,103614.47
2019-01-03T07:07:44.388Z,103614.46
2019-01-03T07:10:45.199Z,103618.79
2019-01-03T07:13:52.706Z,103622.91
2019-01-03T07:20:01.951Z,103627.69
2019-01-03T07:23:02.424Z,103631.13
2019-01-03T07:26:09.959Z,103636.22
2019-01-03T07:29:10.872Z,103635.24
2019-01-03T07:32:18.377Z,103630.75
2019-01-03T07:35:11.490Z,103645.53
2019-01-03T07:37:59.683Z,103644.28
2019-01-03T07:41:00.502Z,103644.05
2019-01-03T07:43:48.528Z,103650.77
2019-01-03T07:46:54.457Z,103652.72
2019-01-03T07:50:02.114Z,103648.92
2019-01-03T07:53:02.212Z,103659.95
2019-01-03T07:56:09.566Z,103666.52
2019-01-03T07:59:09.712Z,103664.44
2019-01-03T08:02:17.306Z,103673.39
2019-01-03T08:05:18.397Z,103676.59
2019-01-03T08:08:25.950Z,103679.88
2019-01-03T08:11:26.502Z,103677.11
2019-01-03T08:14:34.031Z,103667.23
2019-01-03T08:17:37.647Z,103671.17
2019-01-03T08:20:45.110Z,103665.64
2019-01-03T08:23:48.837Z,103668.31
2019-01-03T08:26:56.290Z,103669.47
2019-01-03T08:29:56.447Z,103661.45
2019-01-03T08:33:04.345Z,103664.20
2019-01-03T08:36:04.762Z,103662.56
2019-01-03T08:39:12.194Z,103664.84
2019-01-03T08:42:13.079Z,103667.64
2019-01-03T08:45:20.527Z,103670.17
2019-01-03T08:48:21.694Z,103671.46
2019-01-03T08:51:29.073Z,103681.17
2019-01-03T08:54:29.332Z,103683.91
2019-01-03T08:57:36.796Z,103675.62
2019-01-03T09:00:39.580Z,103672.14
2019-01-03T09:03:46.629Z,103669.05
2019-01-03T09:06:47.172Z,103670.39
2019-01-03T09:09:54.683Z,103677.41
2019-01-03T09:12:55.515Z,103680.50
2019-01-03T09:16:03.255Z,103688.39
2019-01-03T09:19:03.897Z,103684.25
2019-01-03T09:22:11.395Z,103687.75
2019-01-03T09:25:11.419Z,103682.56
2019-01-03T09:28:11.529Z,103675.41
2019-01-03T09:31:13.929Z,103683.60
2019-01-03T09:34:21.464Z,103678.69
2019-01-03T09:37:11.048Z,103675.45
2019-01-03T09:40:20.126Z,103679.22
2019-01-03T09:43:25.918Z,103677.86
2019-01-03T09:46:13.770Z,103676.27
2019-01-03T09:48:56.318Z,103675.78
2019-01-03T09:51:44.278Z,103678.48
2019-01-03T09:54:35.592Z,103674.61
2019-01-03T09:57:16.657Z,103675.47
2019-01-03T09:59:58.909Z,103681.42
2019-01-03T10:02:46.780Z,103682.94
2019-01-03T10:05:36.611Z,103681.13
2019-01-03T10:08:19.653Z,103690.56
2019-01-03T10:11:07.346Z,103681.78
2019-01-03T10:13:48.618Z,103690.59
2019-01-03T10:16:36.772Z,103684.49
2019-01-03T10:19:18.201Z,103684.73
2019-01-03T10:22:06.555Z,103687.44
2019-01-03T10:24:47.223Z,103683.42
2019-01-03T10:27:28.012Z,103694.34
2019-01-03T10:30:16.003Z,103686.50
2019-01-03T10:32:57.176Z,103682.10
2019-01-03T10:35:45.222Z,103678.10
2019-01-03T10:38:13.779Z,103678.50
2019-01-03T10:41:01.941Z,103671.42
2019-01-03T10:43:43.143Z,103670.84
2019-01-03T10:46:31.375Z,103666.34
2019-01-03T10:49:11.986Z,103668.81
2019-01-03T10:52:00.084Z,103675.13
2019-01-03T10:54:41.023Z,103674.95
2019-01-03T10:57:29.057Z,103668.48
2019-01-03T11:00:10.556Z,103664.21
2019-01-03T11:02:58.587Z,103674.03
2019-01-03T11:05:39.597Z,103677.73
2019-01-03T11:08:27.532Z,103677.19
2019-01-03T11:11:10.602Z,103676.69
2019-01-03T11:13:39.223Z,103671.33
2019-01-03T11:16:19.895Z,103662.31
2019-01-03T11:19:07.737Z,103660.50
2019-01-03T11:21:49.062Z,103661.34
2019-01-03T11:24:37.042Z,103653.55
2019-01-03T11:27:18.196Z,103651.23
2019-01-03T11:30:19.392Z,103659.16
2019-01-03T11:33:07.294Z,103656.80
2019-01-03T11:35:48.422Z,103663.81
2019-01-03T11:38:36.296Z,103665.17
2019-01-03T11:41:04.909Z,103669.88
2019-01-03T11:43:52.949Z,103667.62
2019-01-03T11:46:33.498Z,103673.52
2019-01-03T11:49:21.499Z,103671.98
2019-01-03T11:52:02.707Z,103674.49
2019-01-03T11:54:50.480Z,103676.08
2019-01-03T11:57:32.269Z,103681.77
2019-01-03T12:00:20.119Z,103678.53
2019-01-03T12:03:02.320Z,103673.95
2019-01-03T12:05:50.567Z,103681.63
2019-01-03T12:08:31.634Z,103677.56
2019-01-03T12:11:19.696Z,103678.34
2019-01-03T12:14:00.488Z,103669.80
2019-01-03T12:16:48.970Z,103671.25
2019-01-03T12:19:31.664Z,103678.08
2019-01-03T12:22:19.863Z,103678.91
2019-01-03T12:25:00.533Z,103674.08
2019-01-03T12:27:41.696Z,103667.37
2019-01-03T12:30:30.278Z,103658.81
2019-01-03T12:33:10.628Z,103663.30
2019-01-03T12:35:58.493Z,103670.64
2019-01-03T12:38:39.853Z,103664.76
2019-01-03T12:41:27.859Z,103665.55
2019-01-03T12:44:08.954Z,103662.05
2019-01-03T12:46:57.270Z,103671.64
2019-01-03T12:49:39.892Z,103671.16
2019-01-03T12:52:27.925Z,103668.23
2019-01-03T12:55:08.924Z,103664.55
2019-01-03T12:57:57.081Z,103667.16
2019-01-03T13:00:37.745Z,103671.52
2019-01-03T13:03:25.832Z,103669.70
2019-01-03T13:06:06.891Z,103674.42
2019-01-03T13:08:54.868Z,103675.00
2019-01-03T13:11:35.593Z,103674.82
2019-01-03T13:14:23.605Z,103676.36
2019-01-03T13:17:04.480Z,103680.41
2019-01-03T13:19:52.458Z,103687.64
2019-01-03T13:22:33.525Z,103689.31
2019-01-03T13:25:21.443Z,103684.49
2019-01-03T13:28:02.725Z,103687.84
2019-01-03T13:30:50.713Z,103689.52
2019-01-03T13:33:33.879Z,103694.72
2019-01-03T13:36:25.129Z,103695.69
2019-01-03T13:39:06.899Z,103703.88
2019-01-03T13:41:55.407Z,103705.75
2019-01-03T13:44:36.123Z,103706.65
2019-01-03T13:47:25.517Z,103710.06
2019-01-03T13:50:07.249Z,103708.77
2019-01-03T13:52:55.339Z,103704.45
2019-01-03T13:55:24.501Z,103712.75
2019-01-03T13:58:12.666Z,103712.95
2019-01-03T14:00:53.351Z,103708.05
2019-01-03T14:03:41.677Z,103705.23
2019-01-03T14:06:23.243Z,103707.74
2019-01-03T14:09:11.717Z,103707.74
2019-01-03T14:11:41.484Z,103704.89
2019-01-03T14:14:29.527Z,103694.99
2019-01-03T14:17:10.616Z,103687.50
2019-01-03T14:19:40.582Z,103672.16
2019-01-03T14:22:24.210Z,103683.18
2019-01-03T14:25:12.645Z,103674.63
2019-01-03T14:27:53.812Z,103667.25
2019-01-03T14:30:42.763Z,103664.69
2019-01-03T14:33:23.985Z,103667.72
2019-01-03T14:35:52.761Z,103665.95
2019-01-03T14:38:34.108Z,103661.48
2019-01-03T14:41:22.671Z,103674.28
2019-01-03T14:44:04.284Z,103672.73
2019-01-03T14:46:52.264Z,103684.43
2019-01-03T14:49:33.722Z,103689.04
2019-01-03T14:52:21.720Z,103694.05
2019-01-03T14:55:03.407Z,103698.02
2019-01-03T14:57:51.294Z,103697.08
2019-01-03T15:00:32.637Z,103688.20
2019-01-03T15:03:01.372Z,103696.89
2019-01-03T15:05:42.547Z,103693.52
2019-01-03T15:08:30.528Z,103692.02
2019-01-03T15:11:13.050Z,103697.41
2019-01-03T15:13:41.655Z,103698.25
2019-01-03T15:16:22.206Z,103701.70
2019-01-03T15:19:10.057Z,103707.77
2019-01-03T15:21:51.402Z,103702.73
2019-01-03T15:24:39.424Z,103702.73
2019-01-03T15:27:22.755Z,103708.79
2019-01-03T15:30:11.437Z,103714.70
2019-01-03T15:32:53.195Z,103720.41
2019-01-03T15:35:41.263Z,103729.86
2019-01-03T15:38:24.014Z,103729.62
2019-01-03T15:41:11.933Z,103732.11
2019-01-03T15:43:53.049Z,103732.63
2019-01-03T15:46:41.034Z,103738.50
2019-01-03T15:49:21.693Z,103747.03
2019-01-03T15:52:10.182Z,103757.53
2019-01-03T15:54:50.988Z,103761.83
2019-01-03T15:57:38.962Z,103765.27
2019-01-03T16:00:20.172Z,103768.97
2019-01-03T16:03:09.391Z,103773.44
2019-01-03T16:05:50.367Z,103783.16
2019-01-03T16:08:38.258Z,103780.52
2019-01-03T16:11:19.368Z,103780.34
2019-01-03T16:14:07.470Z,103773.81
2019-01-03T16:16:48.721Z,103772.94
2019-01-03T16:19:36.717Z,103773.58
2019-01-03T16:22:17.862Z,103773.77
2019-01-03T16:25:06.226Z,103774.28
2019-01-03T16:27:47.033Z,103778.08
2019-01-03T16:30:35.349Z,103773.36
2019-01-03T16:33:15.899Z,103770.55
2019-01-03T16:36:03.841Z,103774.76
2019-01-03T16:38:45.014Z,103788.28
2019-01-03T16:41:34.760Z,103785.87
2019-01-03T16:44:16.665Z,103785.50
2019-01-03T16:46:59.175Z,103791.52
2019-01-03T16:49:50.019Z,103790.14
2019-01-03T16:52:33.463Z,103791.04
2019-01-03T16:55:14.573Z,103787.61
2019-01-03T16:57:55.435Z,103794.95
2019-01-03T17:00:43.510Z,103785.02
2019-01-03T17:03:24.834Z,103789.26
2019-01-03T17:06:12.710Z,103788.83
2019-01-03T17:08:53.802Z,103786.64
2019-01-03T17:11:41.568Z,103791.72
2019-01-03T17:14:22.851Z,103782.97
2019-01-03T17:17:11.000Z,103788.05
2019-01-03T17:19:51.927Z,103789.70
2019-01-03T17:22:39.872Z,103785.00
2019-01-03T17:25:20.825Z,103783.92
2019-01-03T17:28:02.918Z,103785.86
2019-01-03T17:30:51.708Z,103780.17
2019-01-03T17:33:34.433Z,103787.15
2019-01-03T17:36:23.470Z,103789.68
2019-01-03T17:39:07.284Z,103790.54
2019-01-03T17:41:56.132Z,103791.75
2019-01-03T17:44:39.325Z,103795.68
2019-01-03T17:47:28.408Z,103792.13
2019-01-03T17:50:09.610Z,103787.84
2019-01-03T17:52:58.377Z,103786.79
2019-01-03T17:55:28.314Z,103777.09
2019-01-03T17:58:16.222Z,103773.44
2019-01-03T18:00:56.847Z,103777.69
2019-01-03T18:03:44.849Z,103777.02
2019-01-03T18:06:13.564Z,103780.23
2019-01-03T18:09:01.687Z,103786.16
2019-01-03T18:11:43.223Z,103787.05
2019-01-03T18:14:11.867Z,103787.89
2019-01-03T18:16:52.888Z,103788.56
2019-01-03T18:19:40.839Z,103790.05
2019-01-03T18:22:21.849Z,103784.77
2019-01-03T18:25:10.632Z,103780.90
2019-01-03T18:27:51.874Z,103783.52
2019-01-03T18:30:40.180Z,103787.94
2019-01-03T18:33:20.687Z,103786.88
2019-01-03T18:36:08.972Z,103782.06
2019-01-03T18:38:49.945Z,103782.69
2019-01-03T18:41:38.017Z,103786.21
2019-01-03T18:44:19.238Z,103787.09
2019-01-03T18:47:07.150Z,103778.42
2019-01-03T18:49:47.968Z,103782.57
2019-01-03T18:52:16.878Z,103780.05
2019-01-03T18:54:57.847Z,103780.27
2019-01-03T18:57:45.959Z,103778.55
2019-01-03T19:00:27.069Z,103780.40
2019-01-03T19:03:15.083Z,103774.30
2019-01-03T19:05:56.169Z,103783.23
2019-01-03T19:08:44.620Z,103785.74
2019-01-03T19:11:13.231Z,103787.81
2019-01-03T19:14:01.293Z,103780.99
2019-01-03T19:16:29.855Z,103782.77
2019-01-03T19:19:17.716Z,103786.65
2019-01-03T19:21:58.971Z,103792.38
2019-01-03T19:24:46.903Z,103785.89
2019-01-03T19:27:30.117Z,103791.77
2019-01-03T19:30:11.264Z,103794.16
2019-01-03T19:32:52.466Z,103804.68
2019-01-03T19:35:40.500Z,103799.45
2019-01-03T19:38:21.611Z,103795.91
2019-01-03T19:41:09.956Z,103800.14
2019-01-03T19:43:51.175Z,103796.84
2019-01-03T19:46:40.593Z,103797.78
2019-01-03T19:49:20.594Z,103791.66
2019-01-03T19:52:09.031Z,103789.73
2019-01-03T19:54:49.628Z,103794.27
2019-01-03T19:57:37.607Z,103792.31
2019-01-03T20:00:18.502Z,103797.34
2019-01-03T20:02:48.731Z,103794.48
2019-01-03T20:05:29.673Z,103795.02
2019-01-03T20:08:17.808Z,103800.92
2019-01-03T20:10:58.785Z,103800.73
2019-01-03T20:13:47.100Z,103804.53
2019-01-03T20:16:27.732Z,103810.72
2019-01-03T20:19:16.029Z,103810.80
2019-01-03T20:21:59.888Z,103819.35
2019-01-03T20:24:48.178Z,103816.08
2019-01-03T20:27:29.560Z,103824.80
2019-01-03T20:30:10.566Z,103818.36
2019-01-03T20:32:51.378Z,103825.42
2019-01-03T20:35:32.571Z,103826.14
2019-01-03T20:38:01.231Z,103825.55
2019-01-03T20:40:49.229Z,103820.70
2019-01-03T20:43:30.083Z,103815.47
2019-01-03T20:46:18.053Z,103808.56
2019-01-03T20:48:59.478Z,103811.99
2019-01-03T20:51:48.045Z,103802.50
2019-01-03T20:54:29.333Z,103797.75
2019-01-03T20:57:17.191Z,103783.64
2019-01-03T20:59:58.645Z,103789.30
2019-01-03T21:02:47.761Z,103788.77
2019-01-03T21:05:28.952Z,103786.79
2019-01-03T21:08:16.812Z,103794.81
2019-01-03T21:10:59.397Z,103792.09
2019-01-03T21:13:47.490Z,103796.77
2019-01-03T21:16:29.280Z,103798.16
2019-01-03T21:19:18.325Z,103791.02
2019-01-03T21:21:59.185Z,103789.58
2019-01-03T21:24:29.208Z,103783.19
2019-01-03T21:27:10.792Z,103781.64
2019-01-03T21:29:51.833Z,103784.45
2019-01-03T21:32:32.906Z,103779.81
2019-01-03T21:35:21.524Z,103770.61
2019-01-03T21:37:50.490Z,103774.91
2019-01-03T21:40:38.338Z,103774.28
2019-01-03T21:43:18.997Z,103767.98
2019-01-03T21:46:07.074Z,103767.91
2019-01-03T21:48:53.084Z,103767.50
2019-01-03T21:51:38.182Z,103761.23
2019-01-03T21:54:06.747Z,103762.80
2019-01-03T21:56:54.734Z,103761.27
2019-01-03T21:59:36.053Z,103756.23
2019-01-03T22:02:24.038Z,103754.41
2019-01-03T22:05:05.168Z,103762.35
2019-01-03T22:07:53.119Z,103756.66
2019-01-03T22:10:34.761Z,103755.11
2019-01-03T22:13:22.948Z,103746.44
2019-01-03T22:16:04.528Z,103738.87
2019-01-03T22:18:53.099Z,103735.13
2019-01-03T22:21:34.305Z,103739.62
2019-01-03T22:24:22.071Z,103736.11
2019-01-03T22:27:02.852Z,103731.91
2019-01-03T22:29:43.886Z,103729.01
2019-01-03T22:32:24.756Z,103732.59
2019-01-03T22:35:12.915Z,103727.81
2019-01-03T22:37:55.650Z,103736.51
2019-01-03T22:40:43.642Z,103727.98
2019-01-03T22:43:24.635Z,103722.55
2019-01-03T22:46:12.550Z,103720.25
2019-01-03T22:48:51.558Z,103709.23
2019-01-03T22:51:39.532Z,103713.92
2019-01-03T22:54:20.763Z,103709.81
2019-01-03T22:57:08.727Z,103710.16
2019-01-03T22:59:49.897Z,103718.81
2019-01-03T23:02:37.864Z,103724.18
2019-01-03T23:05:19.500Z,103721.69
2019-01-03T23:08:07.697Z,103722.84
2019-01-03T23:10:50.202Z,103724.69
2019-01-03T23:13:38.239Z,103722.31
2019-01-03T23:16:21.156Z,103720.59
2019-01-03T23:19:09.003Z,103721.52
2019-01-03T23:21:50.289Z,103710.05
2019-01-03T23:24:38.355Z,103703.48
2019-01-03T23:27:19.556Z,103705.37
2019-01-03T23:30:00.692Z,103708.89
2019-01-03T23:32:41.694Z,103723.00
2019-01-03T23:35:29.617Z,103718.42
2019-01-03T23:38:10.800Z,103709.31
2019-01-03T23:40:58.695Z,103699.66
2019-01-03T23:43:40.202Z,103699.08
2019-01-03T23:46:28.595Z,103693.89
2019-01-03T23:49:09.669Z,103690.34
2019-01-03T23:51:57.590Z,103694.23
2019-01-03T23:54:40.298Z,103688.04
2019-01-03T23:57:29.101Z,103684.72
